Doric Champion — A8XF5 — position and weather

sailwx.info

Track history (hours):
 
Tides and Currents Weather Stations Pressure Air Temp Water Temp Dewpoint Dewpoint Depression Visibility Wind Speed Wind Dir Waves Ship Positions

Doric Champion

Last reported at 2014-Oct-15 00:19 UTC. Time now 2014-Oct-25 12:01 UTC.
Position N 46°24' E 031°07'.
Warning: this ship's position is 10 days out of date.

Length 229 m; draft 14.5 m.

Type: Cargo ship. MMSI: 636014887.

Date/timePositionNaut miles runAvg speedWind from/ knotsBaromVisibWave heightAir tempDewpointWater temp
2014-Oct-15 00:19N 46°24' E 031°07'0 0.0
2014-Oct-14 23:31N 46°24' E 031°07'0 0.0
2014-Oct-14 22:22N 46°24' E 031°07'0 0.0
2014-Oct-14 21:31N 46°24' E 031°07'0 0.0
2014-Oct-14 20:04N 46°24' E 031°07'0 0.0
2014-Oct-14 18:19N 46°24' E 031°07'0 0.0
2014-Oct-14 15:31N 46°24' E 031°07'0 0.0
2014-Oct-14 14:25N 46°24' E 031°07'0 0.0
2014-Oct-14 04:10N 46°24' E 031°07'0 0.0
2014-Oct-13 07:31N 46°24' E 031°07'0 0.0
2014-Oct-13 03:13N 46°24' E 031°07'0 0.1
2014-Oct-13 01:31N 46°24' E 031°07'0 0.0
2014-Oct-12 04:13N 46°24' E 031°07'0 0.0
2014-Oct-12 02:04N 46°24' E 031°07'0 0.0
2014-Oct-11 09:31N 46°24' E 031°07'4 3.6
2014-Oct-11 08:16N 46°19' E 031°07'1810.3
2014-Oct-11 06:32N 46°03' E 031°17'1110.9
2014-Oct-11 05:33N 45°53' E 031°09'1110.7
2014-Oct-11 04:33N 45°44' E 031°02'29710.6
2014-Oct-10 00:28N 41°00' E 028°60'9 9.5
2014-Oct-09 23:32N 40°51' E 029°01'6 5.7
2014-Oct-09 22:33N 40°47' E 028°55'1 0.8
2014-Oct-09 21:30N 40°48' E 028°56'1 0.8
2014-Oct-09 20:31N 40°49' E 028°56'1 0.7
2014-Oct-09 19:32N 40°50' E 028°57'0 0.5
2014-Oct-09 18:33N 40°50' E 028°56'2 1.6
2014-Oct-09 17:33N 40°50' E 028°54'245 7.7
2014-Oct-08 09:33N 37°33' E 025°45'1110.7
2014-Oct-08 08:33N 37°23' E 025°39'1110.6
2014-Oct-08 07:33N 37°19' E 025°27'1111.0
2014-Oct-08 06:33N 37°16' E 025°13'1110.9
2014-Oct-08 05:33N 37°13' E 025°00'1111.5
2014-Oct-08 04:33N 37°10' E 024°47'1111.0
2014-Oct-08 03:32N 37°05' E 024°34'1010.2
2014-Oct-08 02:33N 36°59' E 024°24'1211.5
2014-Oct-08 01:33N 36°52' E 024°12'1111.3
2014-Oct-08 00:34N 36°45' E 024°02'1111.2
2014-Oct-07 23:33N 36°37' E 023°52'2511.0
2014-Oct-07 21:19N 36°19' E 023°30'1810.3
2014-Oct-07 19:33N 36°07' E 023°14'19 9.5
2014-Oct-07 17:33N 36°01' E 022°52'  
Track history (hours):
 
Tides and Currents Weather Stations Pressure Air Temp Water Temp Dewpoint Dewpoint Depression Visibility Wind Speed Wind Dir Waves Ship Positions

Doric Champion

Last reported at 2014-Oct-15 00:19 UTC. Time now 2014-Oct-25 12:01 UTC.
Position N 46°24' E 031°07'.
Warning: this ship's position is 10 days out of date.

Length 229 m; draft 14.5 m.

Type: Cargo ship. MMSI: 636014887.

Date/timePositionNaut miles runAvg speedWind from/ knotsBaromVisibWave heightAir tempDewpointWater temp
2014-Oct-15 00:19N 46°24' E 031°07'0 0.0
2014-Oct-14 23:31N 46°24' E 031°07'0 0.0
2014-Oct-14 22:22N 46°24' E 031°07'0 0.0
2014-Oct-14 21:31N 46°24' E 031°07'0 0.0
2014-Oct-14 20:04N 46°24' E 031°07'0 0.0
2014-Oct-14 18:19N 46°24' E 031°07'0 0.0
2014-Oct-14 15:31N 46°24' E 031°07'0 0.0
2014-Oct-14 14:25N 46°24' E 031°07'0 0.0
2014-Oct-14 04:10N 46°24' E 031°07'0 0.0
2014-Oct-13 07:31N 46°24' E 031°07'0 0.0
2014-Oct-13 03:13N 46°24' E 031°07'0 0.1
2014-Oct-13 01:31N 46°24' E 031°07'0 0.0
2014-Oct-12 04:13N 46°24' E 031°07'0 0.0
2014-Oct-12 02:04N 46°24' E 031°07'0 0.0
2014-Oct-11 09:31N 46°24' E 031°07'4 3.6
2014-Oct-11 08:16N 46°19' E 031°07'1810.3
2014-Oct-11 06:32N 46°03' E 031°17'1110.9
2014-Oct-11 05:33N 45°53' E 031°09'1110.7
2014-Oct-11 04:33N 45°44' E 031°02'29710.6
2014-Oct-10 00:28N 41°00' E 028°60'9 9.5
2014-Oct-09 23:32N 40°51' E 029°01'6 5.7
2014-Oct-09 22:33N 40°47' E 028°55'1 0.8
2014-Oct-09 21:30N 40°48' E 028°56'1 0.8
2014-Oct-09 20:31N 40°49' E 028°56'1 0.7
2014-Oct-09 19:32N 40°50' E 028°57'0 0.5
2014-Oct-09 18:33N 40°50' E 028°56'2 1.6
2014-Oct-09 17:33N 40°50' E 028°54'245 7.7
2014-Oct-08 09:33N 37°33' E 025°45'1110.7
2014-Oct-08 08:33N 37°23' E 025°39'1110.6
2014-Oct-08 07:33N 37°19' E 025°27'1111.0
2014-Oct-08 06:33N 37°16' E 025°13'1110.9
2014-Oct-08 05:33N 37°13' E 025°00'1111.5
2014-Oct-08 04:33N 37°10' E 024°47'1111.0
2014-Oct-08 03:32N 37°05' E 024°34'1010.2
2014-Oct-08 02:33N 36°59' E 024°24'1211.5
2014-Oct-08 01:33N 36°52' E 024°12'1111.3
2014-Oct-08 00:34N 36°45' E 024°02'1111.2
2014-Oct-07 23:33N 36°37' E 023°52'2511.0
2014-Oct-07 21:19N 36°19' E 023°30'1810.3
2014-Oct-07 19:33N 36°07' E 023°14'19 9.5
2014-Oct-07 17:33N 36°01' E 022°52'  

Dump ship's entire track history